Narooma Vrcp, New South Wales

12:27 AM WST on August 22, 2014 (GMT +0800)
Narooma | Change Station
CLOSE
Current Station
Personal Weather Station
Location: Narooma, NSW
Elevation: 66 ft
Nearby Weather Stations

Elev 66 ft 36.22 °S, 150.11 °E | Updated 12 minutes ago

Rain
Rain
49.3 °F
Feels Like 49 °F
N
2.0
Wind Variable Wind from West
Gusts 5.0 mph

Today
High -- | Low -- °F
--% Chance of Precip.
Yesterday
High -- | Low -- °F
Precip. -- in
4:33 AM 3:31 PM
Waning Crescent, 13% visible
Pressure 30.45 in
Visibility -9999.0 miles
Clouds Scattered Clouds 3100 ft
Scattered Clouds 3700 ft
Windchill 49 °F
Dew Point 47 °F
Humidity 93%
Rainfall 0.06 in
Snow Depth Not available.
UV 0 out of 12
Pollen Not available.
Air Quality Not available.
Flu Activity Not available.
SPECI YMER 211610Z AUTO 27003KT 4600 // SCT031 SCT037 09/08 Q1031

More Conditions Fewer Conditions

Pressure 30.45 in
Visibility -9999.0 miles
Clouds Scattered Clouds 3100 ft
Scattered Clouds 3700 ft
Windchill 49 °F
Dew Point 47 °F
Humidity 93%
Rainfall 0.06 in
Snow Depth Not available.
UV 0 out of 12
Pollen Not available.
Air Quality Not available.
Flu Activity Not available.
SPECI YMER 211610Z AUTO 27003KT 4600 // SCT031 SCT037 09/08 Q1031

More Conditions Fewer Conditions

10-Day Weather Forecast

Almanac

Astronomy

Aug. 22, 2014 Rise Set
Actual Time 4:33 AM WST 3:31 PM WST
Civil Twilight 4:07 AM WST 3:57 PM WST
Nautical Twilight 3:37 AM WST 4:27 PM WST
Astronomical Twilight 3:07 AM WST 4:57 PM WST
Moon 2:02 AM WST (8/22) 12:38 PM WST (8/22)
Length of Visible Light 11h 50m
Length of Day
10h 57m
Tomorrow will be 2m 4s longer.
Waning Crescent, 13% of the Moon is Illuminated
Aug 21
Waning Crescent
Aug 25
New
Sep 2
First Quarter
Sep 8
Full
Sep 15
Last Quarter

Yesterday's Extremes

Country Highs Country Lows

Community

WunderPhotos

Upload Photos

1,745,955 photos uploaded!

Nearby

Snow Depth

Not available.

Earthquake Activity

City Distance Mag. Time & Date
No recent earthquake activity has been reported nearby.
Minimum magnitude displayed is 2.5.

Coastal Water Temperatures

Place Temperature
No Stations Reporting

Nearby Weather Stations